Terminal Aerodrome Forecast
Issued by NWS

Home | Current Version | Previous Version | Text Only | Print | Product List | Glossary On
Versions: 1 2 3 4 5 6 7 8 9 10 11 12 13 14 15 16 17 18 19 20 21 22 23 24 25 26 27 28 29 30 31 32 33 34 35 36 37 38 39
000
FTUS45 KBOU 210259 AAA
TAFAPA
TAF AMD
KAPA 210259Z 2103/2124 18013KT P6SM FEW120
     FM210600 23010KT P6SM SKC
     FM211500 VRB06KT P6SM FEW120 SCT200
     FM211900 14008KT P6SM SCT080 BKN140
     FM212200 17010KT P6SM SCT070 BKN120=

USA.gov is the U.S. government's official web portal to all federal, state and local government web resources and services.